createdAt,value
2023-07-08T00:00:53.990Z,63.32
2023-07-08T00:03:41.330Z,63.72
2023-07-08T00:06:16.686Z,64.56
2023-07-08T00:08:43.225Z,64.73
2023-07-08T00:11:12.108Z,64.78
2023-07-08T00:13:38.843Z,65.63
2023-07-08T00:16:12.630Z,66.62
2023-07-08T00:18:39.918Z,66.36
2023-07-08T00:21:15.795Z,66.39
2023-07-08T00:23:46.747Z,66.55
2023-07-08T00:26:24.486Z,66.20
2023-07-08T00:28:51.404Z,66.47
2023-07-08T00:31:24.077Z,68.22
2023-07-08T00:33:51.231Z,67.15
2023-07-08T00:36:19.268Z,66.84
2023-07-08T00:38:46.573Z,67.22
2023-07-08T00:41:31.783Z,67.17
2023-07-08T00:44:00.374Z,67.83
2023-07-08T00:46:30.089Z,67.56
2023-07-08T00:49:08.834Z,67.39
2023-07-08T00:51:40.277Z,67.62
2023-07-08T00:54:15.112Z,67.62
2023-07-08T00:56:41.669Z,67.68
2023-07-08T00:59:18.959Z,68.03
2023-07-08T01:01:46.769Z,68.17
2023-07-08T01:04:18.383Z,68.68
2023-07-08T01:06:47.633Z,69.21
2023-07-08T01:09:16.475Z,69.53
2023-07-08T01:11:43.256Z,69.53
2023-07-08T01:14:14.779Z,69.85
2023-07-08T01:16:42.244Z,69.23
2023-07-08T01:19:16.448Z,69.38
2023-07-08T01:22:02.942Z,69.96
2023-07-08T01:24:32.102Z,69.53
2023-07-08T01:27:01.203Z,69.82
2023-07-08T01:29:28.694Z,70.24
2023-07-08T01:31:57.057Z,70.52
2023-07-08T01:34:24.116Z,70.46
2023-07-08T01:36:56.126Z,70.97
2023-07-08T01:39:24.758Z,71.30
2023-07-08T01:41:52.095Z,71.71
2023-07-08T01:44:35.339Z,72.00
2023-07-08T01:47:13.868Z,72.46
2023-07-08T01:49:42.638Z,72.03
2023-07-08T01:52:11.120Z,72.26
2023-07-08T01:54:37.746Z,72.29
2023-07-08T01:57:05.167Z,72.42
2023-07-08T01:59:31.852Z,72.66
2023-07-08T02:01:58.900Z,73.10
2023-07-08T02:04:27.278Z,73.00
2023-07-08T02:06:55.916Z,73.31
2023-07-08T02:09:23.536Z,73.48
2023-07-08T02:11:50.286Z,74.07
2023-07-08T02:14:17.736Z,74.40
2023-07-08T02:16:44.540Z,74.19
2023-07-08T02:19:12.322Z,74.35
2023-07-08T02:21:39.660Z,74.50
2023-07-08T02:24:08.357Z,74.99
2023-07-08T02:26:36.131Z,74.93
2023-07-08T02:29:03.345Z,75.58
2023-07-08T02:31:30.932Z,75.42
2023-07-08T02:33:57.574Z,75.47
2023-07-08T02:36:24.145Z,75.92
2023-07-08T02:38:51.058Z,76.07
2023-07-08T02:41:17.920Z,75.99
2023-07-08T02:43:44.533Z,75.61
2023-07-08T02:46:11.466Z,75.63
2023-07-08T02:48:39.031Z,76.02
2023-07-08T02:51:06.843Z,76.60
2023-07-08T02:53:33.468Z,76.74
2023-07-08T02:56:00.698Z,76.96
2023-07-08T02:58:28.048Z,77.21
2023-07-08T03:00:59.776Z,77.21
2023-07-08T03:03:29.675Z,77.27
2023-07-08T03:06:02.314Z,77.35
2023-07-08T03:08:30.060Z,77.57
2023-07-08T03:11:07.820Z,77.87
2023-07-08T03:13:35.399Z,77.83
2023-07-08T03:16:03.073Z,77.94
2023-07-08T03:18:30.173Z,77.76
2023-07-08T03:20:58.604Z,77.80
2023-07-08T03:23:26.975Z,77.72
2023-07-08T03:25:53.757Z,78.28
2023-07-08T03:28:21.099Z,78.14
2023-07-08T03:30:52.882Z,78.23
2023-07-08T03:33:20.592Z,78.28
2023-07-08T03:35:47.514Z,78.71
2023-07-08T03:38:14.106Z,78.77
2023-07-08T03:40:41.049Z,78.79
2023-07-08T03:43:08.833Z,79.48
2023-07-08T03:45:36.783Z,79.65
2023-07-08T03:48:04.970Z,79.70
2023-07-08T03:50:32.277Z,79.68
2023-07-08T03:52:58.966Z,79.66
2023-07-08T03:55:29.025Z,79.70
2023-07-08T03:57:56.398Z,79.46
2023-07-08T04:00:23.305Z,80.04
2023-07-08T04:02:49.994Z,80.89
2023-07-08T04:05:23.263Z,79.15
2023-07-08T04:07:49.905Z,78.73
2023-07-08T04:10:19.561Z,78.96
2023-07-08T04:12:46.211Z,79.10
2023-07-08T04:15:13.716Z,78.75
2023-07-08T04:17:45.714Z,79.45
2023-07-08T04:20:16.120Z,79.67
2023-07-08T04:22:42.737Z,78.75
2023-07-08T04:25:12.683Z,78.89
2023-07-08T04:27:39.900Z,78.32
2023-07-08T04:30:07.637Z,78.43
2023-07-08T04:32:34.298Z,78.51
2023-07-08T04:35:00.867Z,77.91
2023-07-08T04:37:27.493Z,77.60
2023-07-08T04:39:54.051Z,77.36
2023-07-08T04:42:20.573Z,76.61
2023-07-08T04:44:47.147Z,76.03
2023-07-08T04:47:14.307Z,75.48
2023-07-08T04:49:43.918Z,74.65
2023-07-08T04:52:11.118Z,73.37
2023-07-08T04:54:37.766Z,73.08
2023-07-08T04:57:04.947Z,72.34
2023-07-08T04:59:34.983Z,71.75
2023-07-08T05:02:01.595Z,71.68
2023-07-08T05:04:28.294Z,72.05
2023-07-08T05:06:54.960Z,71.81
2023-07-08T05:09:24.011Z,72.12
2023-07-08T05:11:50.620Z,71.85
2023-07-08T05:14:17.297Z,71.94
2023-07-08T05:16:43.988Z,71.65
2023-07-08T05:19:10.941Z,71.24
2023-07-08T05:21:38.929Z,70.74
2023-07-08T05:24:06.267Z,70.11
2023-07-08T05:26:33.734Z,70.32
2023-07-08T05:29:01.019Z,70.04
2023-07-08T05:31:45.557Z,69.79
2023-07-08T05:34:15.012Z,69.44
2023-07-08T05:36:41.962Z,69.34
2023-07-08T05:39:08.552Z,69.27
2023-07-08T05:41:35.141Z,69.54
2023-07-08T05:44:02.462Z,69.46
2023-07-08T05:46:29.323Z,69.48
2023-07-08T05:48:56.315Z,69.33
2023-07-08T05:51:23.327Z,69.01
2023-07-08T05:53:49.878Z,68.73
2023-07-08T05:56:16.438Z,68.86
2023-07-08T05:58:42.933Z,68.97
2023-07-08T06:01:09.532Z,68.74
2023-07-08T06:03:38.244Z,68.64
2023-07-08T06:06:08.582Z,68.62
2023-07-08T06:08:35.809Z,68.63
2023-07-08T06:11:02.721Z,68.48
2023-07-08T06:13:29.850Z,67.93
2023-07-08T06:15:56.541Z,67.69
2023-07-08T06:18:23.246Z,67.48
2023-07-08T06:20:58.358Z,67.71
2023-07-08T06:23:25.980Z,67.13
2023-07-08T06:25:52.834Z,66.99
2023-07-08T06:28:20.612Z,66.47
2023-07-08T06:30:48.059Z,66.58
2023-07-08T06:33:14.940Z,66.05
2023-07-08T06:35:42.104Z,65.84
2023-07-08T06:38:09.295Z,65.78
2023-07-08T06:40:36.210Z,65.51
2023-07-08T06:43:03.751Z,65.08
2023-07-08T06:45:36.049Z,64.96
2023-07-08T06:48:02.861Z,64.39
2023-07-08T06:50:31.264Z,63.66
2023-07-08T06:52:57.791Z,63.45
2023-07-08T06:55:24.669Z,62.22
2023-07-08T06:57:51.839Z,62.24
2023-07-08T07:00:18.720Z,61.33
2023-07-08T07:02:45.375Z,61.29
2023-07-08T07:05:12.082Z,61.19
2023-07-08T07:07:38.700Z,59.18
2023-07-08T07:10:06.439Z,59.45
2023-07-08T07:12:33.017Z,58.97
2023-07-08T07:14:59.606Z,59.57
2023-07-08T07:17:27.581Z,59.67
2023-07-08T07:19:54.630Z,59.00
2023-07-08T07:22:21.260Z,58.54
2023-07-08T07:24:48.479Z,58.64
2023-07-08T07:27:15.101Z,58.60
2023-07-08T07:29:44.429Z,58.17
2023-07-08T07:32:11.715Z,56.44
2023-07-08T07:34:39.340Z,56.62
2023-07-08T07:37:17.022Z,56.79
2023-07-08T07:39:44.013Z,56.15
2023-07-08T07:42:11.836Z,54.79
2023-07-08T07:44:40.043Z,55.55
2023-07-08T07:47:07.876Z,55.17
2023-07-08T07:49:34.851Z,54.38
2023-07-08T07:52:01.788Z,54.04
2023-07-08T07:54:28.375Z,53.76
2023-07-08T07:56:54.939Z,54.07
2023-07-08T07:59:25.646Z,53.52
2023-07-08T08:01:54.293Z,52.03
2023-07-08T08:04:20.969Z,51.93
2023-07-08T08:06:47.987Z,49.33
2023-07-08T08:09:14.716Z,50.88
2023-07-08T08:11:41.254Z,50.09
2023-07-08T08:14:07.933Z,49.34
2023-07-08T08:16:34.626Z,48.84
2023-07-08T08:19:01.177Z,47.14
2023-07-08T08:21:27.839Z,46.27
2023-07-08T08:23:54.425Z,45.66
2023-07-08T08:26:20.995Z,46.57
2023-07-08T08:28:47.552Z,46.04
2023-07-08T08:31:14.196Z,42.12
2023-07-08T08:33:40.773Z,43.22
2023-07-08T08:36:07.350Z,43.96
2023-07-08T08:38:33.931Z,44.72
2023-07-08T08:41:12.438Z,44.44
2023-07-08T08:43:42.860Z,44.89
2023-07-08T08:46:28.316Z,43.70
2023-07-08T08:49:20.958Z,42.60
2023-07-08T08:51:49.878Z,43.19
2023-07-08T08:54:16.509Z,43.05
2023-07-08T08:57:20.860Z,42.20
2023-07-08T08:59:55.820Z,42.33
2023-07-08T09:02:31.297Z,41.06
2023-07-08T09:05:04.060Z,40.92
2023-07-08T09:07:39.341Z,39.82
2023-07-08T09:10:16.544Z,39.78
2023-07-08T09:12:44.076Z,39.88
2023-07-08T09:15:15.734Z,39.25
2023-07-08T09:17:42.648Z,40.13
2023-07-08T09:20:25.214Z,39.92
2023-07-08T09:23:22.683Z,38.67
2023-07-08T09:26:08.052Z,39.35
2023-07-08T09:28:43.540Z,37.45
2023-07-08T09:31:27.223Z,34.22
2023-07-08T09:34:11.778Z,34.40
2023-07-08T09:36:43.963Z,36.49
2023-07-08T09:39:16.737Z,36.46
2023-07-08T09:41:45.432Z,36.78
2023-07-08T09:44:29.465Z,36.81
2023-07-08T09:46:59.027Z,36.70
2023-07-08T09:49:35.420Z,36.63
2023-07-08T09:52:04.810Z,36.10
2023-07-08T09:54:33.020Z,34.88
2023-07-08T09:57:24.997Z,34.22
2023-07-08T10:00:07.436Z,34.60
2023-07-08T10:02:45.804Z,34.37
2023-07-08T10:05:14.829Z,34.11
2023-07-08T10:07:43.919Z,34.45
2023-07-08T10:10:16.291Z,33.36
2023-07-08T10:13:00.079Z,33.38
2023-07-08T10:15:49.412Z,32.59
2023-07-08T10:18:17.813Z,31.06
2023-07-08T10:21:19.925Z,32.41
2023-07-08T10:24:12.488Z,32.58
2023-07-08T10:26:39.273Z,32.94
2023-07-08T10:29:15.113Z,32.16
2023-07-08T10:31:57.065Z,32.05
2023-07-08T10:34:26.827Z,31.87
2023-07-08T10:36:59.297Z,32.24
2023-07-08T10:39:58.449Z,31.87
2023-07-08T10:42:56.764Z,31.74
2023-07-08T10:45:46.942Z,30.05
2023-07-08T10:48:38.287Z,30.63
2023-07-08T10:51:04.876Z,30.71
2023-07-08T10:53:42.570Z,31.13
2023-07-08T10:56:17.657Z,30.34
2023-07-08T10:59:25.139Z,30.74
2023-07-08T11:02:16.473Z,31.32
2023-07-08T11:04:52.249Z,31.61
2023-07-08T11:07:36.583Z,31.01
2023-07-08T11:10:12.120Z,31.55
2023-07-08T11:12:58.266Z,30.80
2023-07-08T11:15:34.480Z,29.93
2023-07-08T11:18:12.367Z,29.74
2023-07-08T11:20:45.933Z,29.83
2023-07-08T11:23:32.231Z,30.12
2023-07-08T11:26:17.772Z,29.76
2023-07-08T11:28:44.717Z,30.02
2023-07-08T11:31:13.386Z,29.02
2023-07-08T11:33:42.264Z,29.69
2023-07-08T11:36:10.533Z,29.71
2023-07-08T11:38:39.116Z,29.18
2023-07-08T11:41:14.766Z,29.10
2023-07-08T11:43:44.477Z,29.33
2023-07-08T11:46:18.384Z,29.13
2023-07-08T11:48:48.696Z,29.30
2023-07-08T11:51:27.554Z,29.21
2023-07-08T11:54:19.266Z,29.20
2023-07-08T11:56:59.522Z,27.75
2023-07-08T11:59:36.999Z,27.81
2023-07-08T12:02:12.973Z,28.05
2023-07-08T12:05:00.034Z,28.36
2023-07-08T12:07:38.385Z,28.11
2023-07-08T12:10:23.157Z,27.42
2023-07-08T12:12:49.701Z,26.48
2023-07-08T12:15:35.265Z,26.35
2023-07-08T12:18:11.623Z,27.42
2023-07-08T12:20:40.539Z,27.53
2023-07-08T12:23:23.492Z,28.28
2023-07-08T12:25:52.078Z,26.70
2023-07-08T12:28:20.618Z,27.26
2023-07-08T12:30:48.853Z,27.81
2023-07-08T12:33:29.128Z,26.74
2023-07-08T12:35:56.898Z,26.32
2023-07-08T12:38:40.110Z,27.01
2023-07-08T12:41:11.493Z,26.08
2023-07-08T12:43:38.250Z,26.06
2023-07-08T12:46:05.501Z,25.23
2023-07-08T12:48:34.734Z,23.60
2023-07-08T12:51:03.079Z,24.24
2023-07-08T12:53:32.336Z,25.24
2023-07-08T12:56:00.859Z,25.55
2023-07-08T12:58:30.514Z,25.01
2023-07-08T13:01:00.015Z,24.48
2023-07-08T13:03:29.994Z,24.75
2023-07-08T13:05:58.925Z,24.56
2023-07-08T13:08:29.648Z,24.69
2023-07-08T13:10:59.623Z,25.05
2023-07-08T13:13:31.297Z,25.32
2023-07-08T13:15:58.434Z,25.30
2023-07-08T13:18:36.594Z,25.70
2023-07-08T13:21:06.736Z,25.95
2023-07-08T13:23:42.463Z,25.49
2023-07-08T13:26:30.569Z,25.31
2023-07-08T13:29:04.598Z,24.71
2023-07-08T13:31:35.925Z,25.09
2023-07-08T13:34:15.948Z,25.26
2023-07-08T13:36:45.861Z,25.66
2023-07-08T13:39:21.256Z,24.80
2023-07-08T13:41:48.315Z,23.61
2023-07-08T13:44:17.433Z,24.54
2023-07-08T13:46:50.099Z,24.75
2023-07-08T13:49:22.795Z,24.28
2023-07-08T13:51:50.627Z,24.69
2023-07-08T13:54:24.681Z,23.71
2023-07-08T13:56:52.430Z,23.59
2023-07-08T13:59:23.149Z,24.21
2023-07-08T14:01:52.854Z,24.22
2023-07-08T14:04:24.162Z,23.72
2023-07-08T14:06:50.790Z,23.77
2023-07-08T14:09:20.855Z,23.70
2023-07-08T14:11:49.040Z,23.06
2023-07-08T14:14:16.103Z,22.87
2023-07-08T14:16:53.973Z,23.10
2023-07-08T14:19:28.524Z,22.84
2023-07-08T14:22:00.048Z,22.28
2023-07-08T14:24:26.696Z,22.02
2023-07-08T14:26:54.405Z,22.27
2023-07-08T14:29:20.993Z,22.33
2023-07-08T14:31:47.815Z,22.37
2023-07-08T14:34:42.224Z,22.76
2023-07-08T14:37:14.900Z,22.37
2023-07-08T14:39:41.710Z,22.79
2023-07-08T14:42:12.773Z,23.25
2023-07-08T14:44:40.999Z,22.59
2023-07-08T14:47:12.592Z,21.18
2023-07-08T14:49:39.150Z,21.23
2023-07-08T14:52:06.538Z,21.78
2023-07-08T14:54:33.333Z,20.94
2023-07-08T14:57:01.295Z,21.35
2023-07-08T14:59:31.716Z,20.01
2023-07-08T15:02:00.096Z,20.49
2023-07-08T15:04:26.918Z,20.04
2023-07-08T15:06:57.744Z,19.71
2023-07-08T15:09:24.267Z,19.15
2023-07-08T15:11:50.900Z,19.49
2023-07-08T15:14:21.876Z,20.03
2023-07-08T15:16:52.432Z,20.21
2023-07-08T15:19:20.939Z,20.20
2023-07-08T15:21:47.650Z,19.68
2023-07-08T15:24:15.744Z,20.47
2023-07-08T15:26:45.630Z,20.84
2023-07-08T15:29:23.139Z,19.91
2023-07-08T15:31:50.449Z,20.48
2023-07-08T15:34:19.754Z,20.11
2023-07-08T15:36:47.418Z,20.08
2023-07-08T15:39:14.875Z,19.84
2023-07-08T15:41:42.845Z,20.00
2023-07-08T15:44:14.134Z,19.97
2023-07-08T15:46:51.125Z,20.25
2023-07-08T15:49:23.589Z,20.21
2023-07-08T15:51:50.769Z,19.90
2023-07-08T15:54:19.573Z,20.11
2023-07-08T15:56:49.003Z,19.88
2023-07-08T15:59:22.335Z,19.75
2023-07-08T16:01:49.430Z,19.75
2023-07-08T16:04:35.636Z,20.27
2023-07-08T16:07:02.499Z,20.59
2023-07-08T16:09:29.104Z,20.49
2023-07-08T16:11:56.049Z,19.99
2023-07-08T16:14:24.642Z,20.08
2023-07-08T16:16:52.985Z,20.43
2023-07-08T16:19:19.807Z,20.32
2023-07-08T16:21:47.523Z,19.87
2023-07-08T16:24:14.096Z,19.62
2023-07-08T16:26:41.532Z,19.69
2023-07-08T16:29:15.629Z,19.84
2023-07-08T16:31:42.358Z,19.92
2023-07-08T16:34:11.039Z,19.87
2023-07-08T16:36:38.813Z,20.23
2023-07-08T16:39:05.444Z,20.20
2023-07-08T16:41:36.091Z,20.11
2023-07-08T16:44:09.592Z,19.85
2023-07-08T16:46:36.229Z,19.92
2023-07-08T16:49:02.885Z,19.94
2023-07-08T16:51:29.598Z,19.98
2023-07-08T16:54:12.862Z,20.01
2023-07-08T16:56:41.206Z,20.16
2023-07-08T16:59:08.747Z,19.75
2023-07-08T17:01:35.792Z,19.72
2023-07-08T17:04:02.661Z,20.27
2023-07-08T17:06:29.478Z,20.27
2023-07-08T17:08:56.309Z,20.40
2023-07-08T17:11:28.774Z,20.05
2023-07-08T17:13:56.262Z,20.53
2023-07-08T17:16:33.369Z,20.96
2023-07-08T17:19:00.552Z,21.07
2023-07-08T17:21:27.179Z,21.35
2023-07-08T17:23:54.030Z,21.82
2023-07-08T17:26:20.693Z,21.83
2023-07-08T17:28:48.866Z,21.86
2023-07-08T17:31:23.557Z,22.32
2023-07-08T17:33:58.223Z,22.18
2023-07-08T17:36:30.155Z,22.28
2023-07-08T17:38:57.967Z,22.47
2023-07-08T17:41:24.938Z,23.21
2023-07-08T17:43:51.803Z,23.72
2023-07-08T17:46:22.871Z,23.78
2023-07-08T17:48:50.675Z,24.58
2023-07-08T17:51:19.547Z,24.70
2023-07-08T17:53:47.866Z,25.38
2023-07-08T17:56:24.242Z,27.11
2023-07-08T17:58:53.152Z,28.03
2023-07-08T18:01:21.975Z,29.23
2023-07-08T18:03:48.637Z,29.67
2023-07-08T18:06:16.164Z,31.07
2023-07-08T18:08:42.743Z,32.19
2023-07-08T18:11:13.471Z,32.55
2023-07-08T18:13:44.456Z,33.28
2023-07-08T18:16:12.909Z,34.87
2023-07-08T18:18:39.688Z,35.95
2023-07-08T18:21:20.141Z,36.37
2023-07-08T18:23:48.932Z,37.47
2023-07-08T18:26:24.039Z,39.80
2023-07-08T18:28:51.209Z,41.61
2023-07-08T18:31:21.783Z,42.37
2023-07-08T18:33:49.769Z,43.66
2023-07-08T18:36:16.860Z,44.75
2023-07-08T18:38:43.776Z,45.70
2023-07-08T18:41:19.612Z,46.36
2023-07-08T18:43:46.629Z,46.68
2023-07-08T18:46:14.932Z,47.76
2023-07-08T18:48:42.466Z,48.48
2023-07-08T18:51:25.969Z,48.70
2023-07-08T18:53:52.825Z,49.43
2023-07-08T18:56:19.508Z,50.41
2023-07-08T18:58:49.463Z,51.41
2023-07-08T19:01:24.842Z,51.62
2023-07-08T19:03:52.132Z,52.53
2023-07-08T19:06:19.511Z,52.88
2023-07-08T19:08:48.320Z,53.60
2023-07-08T19:11:24.244Z,53.90
2023-07-08T19:13:51.519Z,54.24
2023-07-08T19:16:21.642Z,54.98
2023-07-08T19:18:50.128Z,55.85
2023-07-08T19:21:21.501Z,55.50
2023-07-08T19:23:50.727Z,54.03
2023-07-08T19:26:19.411Z,53.11
2023-07-08T19:28:46.286Z,52.86
2023-07-08T19:31:32.464Z,52.92
2023-07-08T19:34:03.116Z,52.64
2023-07-08T19:36:31.897Z,54.51
2023-07-08T19:38:58.733Z,54.86
2023-07-08T19:41:31.055Z,56.04
2023-07-08T19:43:59.501Z,56.66
2023-07-08T19:46:26.298Z,58.32
2023-07-08T19:48:52.936Z,59.35
2023-07-08T19:51:19.582Z,60.68
2023-07-08T19:53:46.125Z,60.82
2023-07-08T19:56:23.740Z,60.36
2023-07-08T19:58:51.189Z,61.22
2023-07-08T20:01:17.979Z,61.83
2023-07-08T20:03:44.602Z,61.99
2023-07-08T20:06:19.904Z,62.26
2023-07-08T20:08:47.258Z,62.30
2023-07-08T20:11:15.731Z,61.61
2023-07-08T20:13:42.413Z,62.14
2023-07-08T20:16:18.820Z,62.46
2023-07-08T20:18:45.443Z,62.26
2023-07-08T20:21:12.483Z,61.61
2023-07-08T20:23:39.705Z,61.00
2023-07-08T20:26:35.397Z,60.64
2023-07-08T20:29:03.873Z,60.55
2023-07-08T20:31:32.538Z,60.35
2023-07-08T20:34:00.474Z,60.47
2023-07-08T20:36:28.425Z,61.46
2023-07-08T20:38:56.315Z,60.91
2023-07-08T20:41:23.204Z,60.89
2023-07-08T20:43:50.173Z,61.26
2023-07-08T20:46:26.624Z,61.60
2023-07-08T20:48:59.346Z,63.51
2023-07-08T20:51:26.074Z,65.63
2023-07-08T20:53:54.139Z,65.64
2023-07-08T20:56:31.304Z,66.26
2023-07-08T20:58:59.174Z,67.00
2023-07-08T21:01:26.828Z,67.29
2023-07-08T21:03:53.498Z,68.66
2023-07-08T21:06:24.019Z,68.95
2023-07-08T21:08:51.642Z,69.17
2023-07-08T21:11:19.148Z,69.96
2023-07-08T21:13:45.856Z,70.62
2023-07-08T21:16:18.863Z,70.60
2023-07-08T21:18:46.091Z,70.71
2023-07-08T21:21:13.134Z,71.27
2023-07-08T21:23:40.146Z,71.48
2023-07-08T21:26:27.953Z,71.78
2023-07-08T21:28:58.624Z,71.49
2023-07-08T21:31:25.638Z,72.22
2023-07-08T21:33:52.386Z,73.41
2023-07-08T21:36:33.910Z,73.31
2023-07-08T21:39:04.128Z,73.37
2023-07-08T21:41:31.996Z,73.55
2023-07-08T21:43:58.673Z,73.60
2023-07-08T21:46:25.709Z,73.96
2023-07-08T21:48:53.812Z,73.26
2023-07-08T21:51:26.422Z,73.50
2023-07-08T21:53:54.074Z,73.29
2023-07-08T21:56:20.749Z,73.75
2023-07-08T21:58:47.411Z,73.98
2023-07-08T22:01:20.027Z,74.82
2023-07-08T22:03:48.118Z,75.24
2023-07-08T22:06:16.569Z,75.48
2023-07-08T22:08:43.188Z,75.92
2023-07-08T22:11:21.422Z,75.69
2023-07-08T22:13:48.225Z,75.77
2023-07-08T22:16:18.075Z,75.48
2023-07-08T22:18:46.123Z,75.87
2023-07-08T22:21:33.184Z,76.32
2023-07-08T22:24:06.152Z,75.07
2023-07-08T22:26:36.074Z,75.00
2023-07-08T22:29:03.661Z,75.26
2023-07-08T22:31:39.592Z,75.11
2023-07-08T22:34:12.807Z,75.31
2023-07-08T22:36:40.657Z,75.41
2023-07-08T22:39:09.123Z,75.39
2023-07-08T22:41:49.861Z,76.17
2023-07-08T22:44:19.274Z,76.39
2023-07-08T22:46:46.655Z,77.07
2023-07-08T22:49:23.547Z,77.52
2023-07-08T22:52:00.979Z,77.15
2023-07-08T22:54:28.511Z,76.35
2023-07-08T22:56:55.226Z,76.85
2023-07-08T22:59:21.763Z,77.29
2023-07-08T23:01:48.286Z,77.98
2023-07-08T23:04:14.946Z,77.97
2023-07-08T23:06:43.547Z,77.80
2023-07-08T23:09:15.994Z,77.81
2023-07-08T23:11:43.949Z,77.91
2023-07-08T23:14:11.710Z,78.22
2023-07-08T23:16:38.971Z,78.03
2023-07-08T23:19:07.593Z,77.53
2023-07-08T23:21:34.263Z,76.97
2023-07-08T23:24:00.922Z,77.04
2023-07-08T23:26:32.888Z,77.70
2023-07-08T23:29:01.031Z,78.14
2023-07-08T23:31:29.788Z,78.37
2023-07-08T23:33:56.892Z,78.57
2023-07-08T23:36:35.854Z,79.04
2023-07-08T23:39:11.166Z,79.08
2023-07-08T23:41:37.733Z,79.59
2023-07-08T23:44:04.443Z,79.39
2023-07-08T23:46:32.459Z,79.54
2023-07-08T23:49:03.939Z,79.26
2023-07-08T23:51:30.524Z,79.68
2023-07-08T23:53:57.059Z,79.95
2023-07-08T23:56:29.729Z,80.01
2023-07-08T23:58:56.724Z,80.17
